Route Details

Aircraft Information
Group: Hub to Hub
Types: B744, MD11, B763, B762, B752, B738
Route Data
Distance: 392nm
Duration: 1h 35m
Origin METAR: KSDF 072256Z 29008KT 10SM OVC043 15/09 A3015 RMK AO2 RAB15E33 SLP210 P0000 T01500089
Dest. METAR: KIAD 072252Z 18005KT 10SM BKN150 OVC200 10/00 A3016 RMK AO2 SLP216 T01000000
Freight Data
(for Feb 7, 2023)
Load Factor:
53%
Manifested Cargo: 62,352lbs
Financial History
Total Freight: 750,396lbs
Average Load: 0lbs/flt
Fuel Used: 124,555lbs
Avg. Fuel Used: 0lbs/flt
Fuel Expense: $81,980
Avg. Fuel Expense: $0
Avg. Fuel Cost: $0/lbs
Total Gross Income: $1,188,644
Pilot Pay: $2,021
Total Expenses: $222,806
Total Revenue: $880,075
Average Revenue: $0

Capitol Logistics 440




KSDF
Muhammad Ali International Airport
Louisville, Kentucky
KIAD
Washington Dulles International Airport
Dulles, Virginia

Activity Log

Date Flight Route Aircraft Duration
01/19/2023 CPX440 FEDRA5 SHIPR DCT HVQ DOCCS3 B738 1h 15m
12/28/2022 CPX440 STREP5 STREP DCT CVG DCT MGW GIBBZ4 MD11 1h 27m
12/26/2022 CPX440 FEDRA5 SHIPR DCT HVQ GIBBZ4 B744 1h 19m
11/15/2022 CPX440 FEDRA5 SHIPR DCT HVQ GIBBZ4 B763 1h 13m
11/08/2022 CPX440 FEDRA5 SHIPR DCT HVQ GIBBZ4 B752 1h 14m
07/14/2022 CPX440 FEDRA5 SHIPR HVQ GIBBZ4 B763 1h 02m
01/20/2020 CPX2220 HYK HVQ GIBBZ3 B763 1h 18m
12/04/2019 CPX2220 HYK HVQ GIBBZ3 B763 1h 23m
04/04/2018 CPX990 FEDRA3 SHIPR HVQ GIBBZ2 B744 1h 17m